KDTL

Detroit Lakes-Wething Field Airport

Detroit Lakes, Minnesota, USA
METAR KDTL 121855Z AUTO 14009KT 1SM BR OVC003 M04/M05 A2969 RMK AO2
Observed Flight Rules
Dec-12 @ 18:55 UTC (26 minutes ago) Instrument Flight Rules
Wind Visibility Clouds Conditions
140° at 9 knots 1 miles
  • Overcast at 300' AGL
  • Mist
Temperatures Readings
Current -4°C / 25°F
Dewpoint -5°C / 23°F
Humidity 93%
Altimeter 29.69" Hg
Pressure 1005 hPa
Elevation 426
METAR KDTL 121855Z AUTO 14009KT 1SM BR OVC003 M04/M05 A2969 RMK AO2
Observed Flight Rules
Dec-12 @ 18:55 UTC
(26 minutes ago)
LIFR
Wind Visibility
140° at 9 knots 1 miles
Clouds
  • Overcast at 300' AGL
Conditions
  • Mist
Temperature Dewpoint
-4°C / 25°F -5°C / 23°F
Humidity Altimeter Pressure
93% 29.69" Hg 1005 hPa